<?xml version="1.0" encoding="UTF-8" standalone="no" ?>
<gpx xmlns="http://www.topografix.com/GPX/1/1" xmlns:xsi="http://www.w3.org/2001/XMLSchema-instance" xsi:schemaLocation="http://www.topografix.com/GPX/1/1 http://www.topografix.com/GPX/1/1/gpx.xsd" version="1.1" creator="VisuGPX - https://www.visugpx.com">
  <metadata>
    <name>parcours vtt 10km</name>
    <desc><![CDATA[parcours vtt 10km douvrin 62]]></desc>
  </metadata>
  <trk>
    <name><![CDATA[parcours vtt 10km_1]]></name>
    <trkseg>
      <trkpt lat="50.50967" lon="2.81386">
        <ele>17.917999267578</ele>
        <time>2011-03-16T14:54:05Z</time>
      </trkpt>
      <trkpt lat="50.50956" lon="2.81405">
        <ele>17.33099937439</ele>
        <time>2011-03-16T14:54:13Z</time>
      </trkpt>
      <trkpt lat="50.50945" lon="2.81435">
        <ele>17.184000015259</ele>
        <time>2011-03-16T14:54:18Z</time>
      </trkpt>
      <trkpt lat="50.5092" lon="2.81496">
        <ele>17.604000091553</ele>
        <time>2011-03-16T14:54:27Z</time>
      </trkpt>
      <trkpt lat="50.50901" lon="2.81544">
        <ele>17.836999893189</ele>
        <time>2011-03-16T14:54:34Z</time>
      </trkpt>
      <trkpt lat="50.50888" lon="2.81574">
        <ele>18.204999923706</ele>
        <time>2011-03-16T14:54:40Z</time>
      </trkpt>
      <trkpt lat="50.50879" lon="2.81589">
        <ele>18.364999771118</ele>
        <time>2011-03-16T14:54:45Z</time>
      </trkpt>
      <trkpt lat="50.50874" lon="2.81606">
        <ele>18.058000564575</ele>
        <time>2011-03-16T14:54:50Z</time>
      </trkpt>
      <trkpt lat="50.50874" lon="2.81608">
        <ele>17.770999908447</ele>
        <time>2011-03-16T14:54:53Z</time>
      </trkpt>
      <trkpt lat="50.50871" lon="2.81621">
        <ele>18.062999725342</ele>
        <time>2011-03-16T14:56:01Z</time>
      </trkpt>
      <trkpt lat="50.50858" lon="2.81652">
        <ele>17.732999801636</ele>
        <time>2011-03-16T14:56:07Z</time>
      </trkpt>
      <trkpt lat="50.50842" lon="2.81695">
        <ele>18.048000335693</ele>
        <time>2011-03-16T14:56:13Z</time>
      </trkpt>
      <trkpt lat="50.50814" lon="2.81766">
        <ele>18.135999679565</ele>
        <time>2011-03-16T14:56:22Z</time>
      </trkpt>
      <trkpt lat="50.50783" lon="2.81837">
        <ele>18.253999710083</ele>
        <time>2011-03-16T14:56:31Z</time>
      </trkpt>
      <trkpt lat="50.50752" lon="2.81911">
        <ele>18.207000732422</ele>
        <time>2011-03-16T14:56:40Z</time>
      </trkpt>
      <trkpt lat="50.50711" lon="2.82013">
        <ele>18.468999862671</ele>
        <time>2011-03-16T14:56:52Z</time>
      </trkpt>
      <trkpt lat="50.50677" lon="2.82096">
        <ele>18.33099937439</ele>
        <time>2011-03-16T14:57:02Z</time>
      </trkpt>
      <trkpt lat="50.5067" lon="2.82109">
        <ele>18.461999893189</ele>
        <time>2011-03-16T14:57:04Z</time>
      </trkpt>
      <trkpt lat="50.50648" lon="2.82168">
        <ele>18.968000411987</ele>
        <time>2011-03-16T14:57:12Z</time>
      </trkpt>
      <trkpt lat="50.5061" lon="2.82258">
        <ele>18.405000686646</ele>
        <time>2011-03-16T14:57:23Z</time>
      </trkpt>
      <trkpt lat="50.50589" lon="2.82307">
        <ele>18.340000152588</ele>
        <time>2011-03-16T14:57:29Z</time>
      </trkpt>
      <trkpt lat="50.50569" lon="2.82359">
        <ele>18.674999237061</ele>
        <time>2011-03-16T14:57:35Z</time>
      </trkpt>
      <trkpt lat="50.50537" lon="2.82437">
        <ele>18.726999282837</ele>
        <time>2011-03-16T14:57:44Z</time>
      </trkpt>
      <trkpt lat="50.5051" lon="2.825">
        <ele>18.635999679565</ele>
        <time>2011-03-16T14:57:51Z</time>
      </trkpt>
      <trkpt lat="50.50489" lon="2.82557">
        <ele>18.607999801636</ele>
        <time>2011-03-16T14:57:58Z</time>
      </trkpt>
      <trkpt lat="50.50482" lon="2.82571">
        <ele>18.497999191284</ele>
        <time>2011-03-16T14:58:02Z</time>
      </trkpt>
      <trkpt lat="50.50473" lon="2.82592">
        <ele>18.351999282837</ele>
        <time>2011-03-16T14:58:07Z</time>
      </trkpt>
      <trkpt lat="50.50453" lon="2.82638">
        <ele>18.134000778198</ele>
        <time>2011-03-16T14:58:14Z</time>
      </trkpt>
      <trkpt lat="50.5043" lon="2.82692">
        <ele>18.035999298096</ele>
        <time>2011-03-16T14:58:21Z</time>
      </trkpt>
      <trkpt lat="50.50406" lon="2.82752">
        <ele>18.031999588013</ele>
        <time>2011-03-16T14:58:28Z</time>
      </trkpt>
      <trkpt lat="50.50372" lon="2.82837">
        <ele>18.336000442505</ele>
        <time>2011-03-16T14:58:38Z</time>
      </trkpt>
      <trkpt lat="50.50338" lon="2.82924">
        <ele>18.033000946045</ele>
        <time>2011-03-16T14:58:48Z</time>
      </trkpt>
      <trkpt lat="50.50328" lon="2.82948">
        <ele>17.872999191284</ele>
        <time>2011-03-16T14:58:51Z</time>
      </trkpt>
      <trkpt lat="50.50311" lon="2.82986">
        <ele>17.857000350952</ele>
        <time>2011-03-16T14:58:56Z</time>
      </trkpt>
      <trkpt lat="50.50283" lon="2.83056">
        <ele>17.364000320435</ele>
        <time>2011-03-16T14:59:04Z</time>
      </trkpt>
      <trkpt lat="50.50247" lon="2.83143">
        <ele>17.163999557495</ele>
        <time>2011-03-16T14:59:14Z</time>
      </trkpt>
      <trkpt lat="50.50224" lon="2.83197">
        <ele>16.764999389648</ele>
        <time>2011-03-16T14:59:21Z</time>
      </trkpt>
      <trkpt lat="50.50214" lon="2.83221">
        <ele>16.923999786377</ele>
        <time>2011-03-16T14:59:25Z</time>
      </trkpt>
      <trkpt lat="50.50211" lon="2.8321">
        <ele>17.339000701904</ele>
        <time>2011-03-16T14:59:29Z</time>
      </trkpt>
      <trkpt lat="50.50212" lon="2.83204">
        <ele>17.632999420166</ele>
        <time>2011-03-16T14:59:30Z</time>
      </trkpt>
      <trkpt lat="50.50221" lon="2.83141">
        <ele>18.025999069214</ele>
        <time>2011-03-16T14:59:38Z</time>
      </trkpt>
      <trkpt lat="50.50221" lon="2.83079">
        <ele>18.354999542236</ele>
        <time>2011-03-16T14:59:45Z</time>
      </trkpt>
      <trkpt lat="50.50211" lon="2.83014">
        <ele>18.333999633789</ele>
        <time>2011-03-16T14:59:52Z</time>
      </trkpt>
      <trkpt lat="50.50209" lon="2.83005">
        <ele>18.260000228882</ele>
        <time>2011-03-16T14:59:53Z</time>
      </trkpt>
      <trkpt lat="50.50194" lon="2.82948">
        <ele>17.365999221802</ele>
        <time>2011-03-16T14:59:59Z</time>
      </trkpt>
      <trkpt lat="50.50168" lon="2.82862">
        <ele>17.820999145508</ele>
        <time>2011-03-16T15:00:08Z</time>
      </trkpt>
      <trkpt lat="50.50154" lon="2.82806">
        <ele>17.350999832153</ele>
        <time>2011-03-16T15:00:14Z</time>
      </trkpt>
      <trkpt lat="50.50141" lon="2.82759">
        <ele>16.926000595093</ele>
        <time>2011-03-16T15:00:20Z</time>
      </trkpt>
      <trkpt lat="50.50134" lon="2.82742">
        <ele>16.791999816894</ele>
        <time>2011-03-16T15:00:24Z</time>
      </trkpt>
      <trkpt lat="50.50126" lon="2.82729">
        <ele>17.879999160767</ele>
        <time>2011-03-16T15:00:30Z</time>
      </trkpt>
      <trkpt lat="50.50117" lon="2.82702">
        <ele>18.254999160767</ele>
        <time>2011-03-16T15:00:37Z</time>
      </trkpt>
      <trkpt lat="50.50103" lon="2.82657">
        <ele>17.715000152588</ele>
        <time>2011-03-16T15:00:45Z</time>
      </trkpt>
      <trkpt lat="50.50089" lon="2.82608">
        <ele>18.391000747681</ele>
        <time>2011-03-16T15:00:53Z</time>
      </trkpt>
      <trkpt lat="50.50068" lon="2.82541">
        <ele>18.545999526977</ele>
        <time>2011-03-16T15:01:02Z</time>
      </trkpt>
      <trkpt lat="50.50042" lon="2.82457">
        <ele>18.826999664307</ele>
        <time>2011-03-16T15:01:12Z</time>
      </trkpt>
      <trkpt lat="50.50021" lon="2.82397">
        <ele>19.57200050354</ele>
        <time>2011-03-16T15:01:19Z</time>
      </trkpt>
      <trkpt lat="50.49995" lon="2.82333">
        <ele>20.017000198364</ele>
        <time>2011-03-16T15:01:27Z</time>
      </trkpt>
      <trkpt lat="50.49966" lon="2.82271">
        <ele>20.389999389648</ele>
        <time>2011-03-16T15:01:35Z</time>
      </trkpt>
      <trkpt lat="50.49921" lon="2.82186">
        <ele>20.642000198364</ele>
        <time>2011-03-16T15:01:46Z</time>
      </trkpt>
      <trkpt lat="50.49876" lon="2.82102">
        <ele>21.488000869751</ele>
        <time>2011-03-16T15:01:57Z</time>
      </trkpt>
      <trkpt lat="50.49836" lon="2.82026">
        <ele>21.833000183106</ele>
        <time>2011-03-16T15:02:07Z</time>
      </trkpt>
      <trkpt lat="50.49796" lon="2.81938">
        <ele>22.944000244141</ele>
        <time>2011-03-16T15:02:18Z</time>
      </trkpt>
      <trkpt lat="50.4978" lon="2.81887">
        <ele>22.625</ele>
        <time>2011-03-16T15:02:25Z</time>
      </trkpt>
      <trkpt lat="50.49772" lon="2.81861">
        <ele>22.673000335693</ele>
        <time>2011-03-16T15:02:30Z</time>
      </trkpt>
      <trkpt lat="50.49771" lon="2.81858">
        <ele>22.693000793457</ele>
        <time>2011-03-16T15:02:32Z</time>
      </trkpt>
      <trkpt lat="50.49771" lon="2.81848">
        <ele>22.833999633789</ele>
        <time>2011-03-16T15:02:36Z</time>
      </trkpt>
      <trkpt lat="50.49766" lon="2.81821">
        <ele>23.052000045776</ele>
        <time>2011-03-16T15:02:43Z</time>
      </trkpt>
      <trkpt lat="50.49764" lon="2.8181">
        <ele>23.097999572754</ele>
        <time>2011-03-16T15:02:48Z</time>
      </trkpt>
      <trkpt lat="50.49764" lon="2.81808">
        <ele>22.986999511719</ele>
        <time>2011-03-16T15:02:52Z</time>
      </trkpt>
      <trkpt lat="50.49765" lon="2.8181">
        <ele>22.843000411987</ele>
        <time>2011-03-16T15:02:57Z</time>
      </trkpt>
      <trkpt lat="50.49765" lon="2.81814">
        <ele>22.641000747681</ele>
        <time>2011-03-16T15:03:09Z</time>
      </trkpt>
      <trkpt lat="50.49762" lon="2.81811">
        <ele>23.343000411987</ele>
        <time>2011-03-16T15:04:57Z</time>
      </trkpt>
      <trkpt lat="50.49761" lon="2.81808">
        <ele>23.229000091553</ele>
        <time>2011-03-16T15:05:02Z</time>
      </trkpt>
      <trkpt lat="50.49762" lon="2.81803">
        <ele>22.558000564575</ele>
        <time>2011-03-16T15:05:11Z</time>
      </trkpt>
      <trkpt lat="50.49763" lon="2.81803">
        <ele>22.356000900269</ele>
        <time>2011-03-16T15:05:12Z</time>
      </trkpt>
      <trkpt lat="50.49767" lon="2.81802">
        <ele>21.864000320435</ele>
        <time>2011-03-16T15:05:19Z</time>
      </trkpt>
      <trkpt lat="50.49767" lon="2.81798">
        <ele>20.725999832153</ele>
        <time>2011-03-16T15:05:24Z</time>
      </trkpt>
      <trkpt lat="50.4977" lon="2.81785">
        <ele>19.816999435425</ele>
        <time>2011-03-16T15:05:41Z</time>
      </trkpt>
      <trkpt lat="50.49763" lon="2.81787">
        <ele>18.492000579834</ele>
        <time>2011-03-16T15:05:46Z</time>
      </trkpt>
      <trkpt lat="50.49762" lon="2.81782">
        <ele>20.579999923706</ele>
        <time>2011-03-16T15:05:50Z</time>
      </trkpt>
      <trkpt lat="50.49762" lon="2.81782">
        <ele>20.495000839233</ele>
        <time>2011-03-16T15:05:51Z</time>
      </trkpt>
      <trkpt lat="50.4976" lon="2.81781">
        <ele>20.361000061035</ele>
        <time>2011-03-16T15:06:06Z</time>
      </trkpt>
      <trkpt lat="50.49763" lon="2.8178">
        <ele>19.287000656128</ele>
        <time>2011-03-16T15:06:27Z</time>
      </trkpt>
      <trkpt lat="50.49763" lon="2.8178">
        <ele>18.891000747681</ele>
        <time>2011-03-16T15:06:28Z</time>
      </trkpt>
      <trkpt lat="50.4976" lon="2.81777">
        <ele>20.364999771118</ele>
        <time>2011-03-16T15:07:39Z</time>
      </trkpt>
      <trkpt lat="50.49759" lon="2.81774">
        <ele>21.101999282837</ele>
        <time>2011-03-16T15:07:41Z</time>
      </trkpt>
      <trkpt lat="50.4976" lon="2.81768">
        <ele>23.434000015259</ele>
        <time>2011-03-16T15:07:47Z</time>
      </trkpt>
      <trkpt lat="50.49761" lon="2.81768">
        <ele>23.698999404907</ele>
        <time>2011-03-16T15:07:48Z</time>
      </trkpt>
      <trkpt lat="50.49761" lon="2.81764">
        <ele>24.688999176025</ele>
        <time>2011-03-16T15:07:55Z</time>
      </trkpt>
      <trkpt lat="50.4976" lon="2.81761">
        <ele>24.451000213623</ele>
        <time>2011-03-16T15:07:59Z</time>
      </trkpt>
      <trkpt lat="50.49759" lon="2.81753">
        <ele>24.395999908447</ele>
        <time>2011-03-16T15:08:03Z</time>
      </trkpt>
      <trkpt lat="50.49752" lon="2.81716">
        <ele>24.826999664307</ele>
        <time>2011-03-16T15:08:11Z</time>
      </trkpt>
      <trkpt lat="50.49743" lon="2.81667">
        <ele>25.304000854492</ele>
        <time>2011-03-16T15:08:20Z</time>
      </trkpt>
      <trkpt lat="50.49731" lon="2.81598">
        <ele>25.711000442505</ele>
        <time>2011-03-16T15:08:31Z</time>
      </trkpt>
      <trkpt lat="50.49718" lon="2.81518">
        <ele>26.576000213623</ele>
        <time>2011-03-16T15:08:42Z</time>
      </trkpt>
      <trkpt lat="50.49708" lon="2.81431">
        <ele>26.836000442505</ele>
        <time>2011-03-16T15:08:54Z</time>
      </trkpt>
      <trkpt lat="50.49704" lon="2.81356">
        <ele>27.514999389648</ele>
        <time>2011-03-16T15:09:04Z</time>
      </trkpt>
      <trkpt lat="50.49703" lon="2.81279">
        <ele>27.798999786377</ele>
        <time>2011-03-16T15:09:14Z</time>
      </trkpt>
      <trkpt lat="50.49706" lon="2.81202">
        <ele>28.134000778198</ele>
        <time>2011-03-16T15:09:24Z</time>
      </trkpt>
      <trkpt lat="50.49712" lon="2.811">
        <ele>28.840000152588</ele>
        <time>2011-03-16T15:09:37Z</time>
      </trkpt>
      <trkpt lat="50.49713" lon="2.8106">
        <ele>29.292999267578</ele>
        <time>2011-03-16T15:09:43Z</time>
      </trkpt>
      <trkpt lat="50.49715" lon="2.81025">
        <ele>29.236000061035</ele>
        <time>2011-03-16T15:09:49Z</time>
      </trkpt>
      <trkpt lat="50.49713" lon="2.81001">
        <ele>28.132999420166</ele>
        <time>2011-03-16T15:09:55Z</time>
      </trkpt>
      <trkpt lat="50.49711" lon="2.80978">
        <ele>24.746999740601</ele>
        <time>2011-03-16T15:10:01Z</time>
      </trkpt>
      <trkpt lat="50.4971" lon="2.80976">
        <ele>24.562999725342</ele>
        <time>2011-03-16T15:10:02Z</time>
      </trkpt>
      <trkpt lat="50.4971" lon="2.80971">
        <ele>24.10000038147</ele>
        <time>2011-03-16T15:10:07Z</time>
      </trkpt>
      <trkpt lat="50.49714" lon="2.80977">
        <ele>22.754999160767</ele>
        <time>2011-03-16T15:11:34Z</time>
      </trkpt>
      <trkpt lat="50.49713" lon="2.80977">
        <ele>23.215000152588</ele>
        <time>2011-03-16T15:11:35Z</time>
      </trkpt>
      <trkpt lat="50.49714" lon="2.80963">
        <ele>24.208000183106</ele>
        <time>2011-03-16T15:12:28Z</time>
      </trkpt>
      <trkpt lat="50.49721" lon="2.80939">
        <ele>24.884000778198</ele>
        <time>2011-03-16T15:12:35Z</time>
      </trkpt>
      <trkpt lat="50.49723" lon="2.8092">
        <ele>27.416999816894</ele>
        <time>2011-03-16T15:12:40Z</time>
      </trkpt>
      <trkpt lat="50.49723" lon="2.80901">
        <ele>29.209999084473</ele>
        <time>2011-03-16T15:12:46Z</time>
      </trkpt>
      <trkpt lat="50.49725" lon="2.80876">
        <ele>29.209999084473</ele>
        <time>2011-03-16T15:12:53Z</time>
      </trkpt>
      <trkpt lat="50.49728" lon="2.80844">
        <ele>29.072999954224</ele>
        <time>2011-03-16T15:13:01Z</time>
      </trkpt>
      <trkpt lat="50.49731" lon="2.80817">
        <ele>29.041999816894</ele>
        <time>2011-03-16T15:13:06Z</time>
      </trkpt>
      <trkpt lat="50.49736" lon="2.80772">
        <ele>29.424999237061</ele>
        <time>2011-03-16T15:13:12Z</time>
      </trkpt>
      <trkpt lat="50.49743" lon="2.80708">
        <ele>29.632999420166</ele>
        <time>2011-03-16T15:13:20Z</time>
      </trkpt>
      <trkpt lat="50.49754" lon="2.80617">
        <ele>29.910999298096</ele>
        <time>2011-03-16T15:13:31Z</time>
      </trkpt>
      <trkpt lat="50.49763" lon="2.80556">
        <ele>29.823999404907</ele>
        <time>2011-03-16T15:13:39Z</time>
      </trkpt>
      <trkpt lat="50.49768" lon="2.80508">
        <ele>29.788999557495</ele>
        <time>2011-03-16T15:13:45Z</time>
      </trkpt>
      <trkpt lat="50.49767" lon="2.80474">
        <ele>29.836999893189</ele>
        <time>2011-03-16T15:13:49Z</time>
      </trkpt>
      <trkpt lat="50.4976" lon="2.80408">
        <ele>29.871000289917</ele>
        <time>2011-03-16T15:13:57Z</time>
      </trkpt>
      <trkpt lat="50.49742" lon="2.80335">
        <ele>29.964000701904</ele>
        <time>2011-03-16T15:14:06Z</time>
      </trkpt>
      <trkpt lat="50.49718" lon="2.80274">
        <ele>29.756000518799</ele>
        <time>2011-03-16T15:14:14Z</time>
      </trkpt>
      <trkpt lat="50.49693" lon="2.80228">
        <ele>30.069999694824</ele>
        <time>2011-03-16T15:14:21Z</time>
      </trkpt>
      <trkpt lat="50.4967" lon="2.80204">
        <ele>29.658000946045</ele>
        <time>2011-03-16T15:14:27Z</time>
      </trkpt>
      <trkpt lat="50.49654" lon="2.80196">
        <ele>28.788000106811</ele>
        <time>2011-03-16T15:14:32Z</time>
      </trkpt>
      <trkpt lat="50.49625" lon="2.80177">
        <ele>27.718999862671</ele>
        <time>2011-03-16T15:14:40Z</time>
      </trkpt>
      <trkpt lat="50.49606" lon="2.80166">
        <ele>26.836999893189</ele>
        <time>2011-03-16T15:14:45Z</time>
      </trkpt>
      <trkpt lat="50.49599" lon="2.8016">
        <ele>26.417999267578</ele>
        <time>2011-03-16T15:14:47Z</time>
      </trkpt>
      <trkpt lat="50.49594" lon="2.80136">
        <ele>25.315000534058</ele>
        <time>2011-03-16T15:14:51Z</time>
      </trkpt>
      <trkpt lat="50.49601" lon="2.80123">
        <ele>25.04400062561</ele>
        <time>2011-03-16T15:14:54Z</time>
      </trkpt>
      <trkpt lat="50.49606" lon="2.80117">
        <ele>25.497999191284</ele>
        <time>2011-03-16T15:14:57Z</time>
      </trkpt>
      <trkpt lat="50.49615" lon="2.801">
        <ele>25.100999832153</ele>
        <time>2011-03-16T15:15:04Z</time>
      </trkpt>
      <trkpt lat="50.49615" lon="2.801">
        <ele>24.951000213623</ele>
        <time>2011-03-16T15:15:05Z</time>
      </trkpt>
      <trkpt lat="50.49612" lon="2.801">
        <ele>23.971000671387</ele>
        <time>2011-03-16T15:15:13Z</time>
      </trkpt>
      <trkpt lat="50.4961" lon="2.80097">
        <ele>24.372999191284</ele>
        <time>2011-03-16T15:16:13Z</time>
      </trkpt>
      <trkpt lat="50.4961" lon="2.80095">
        <ele>24.471000671387</ele>
        <time>2011-03-16T15:16:16Z</time>
      </trkpt>
      <trkpt lat="50.49612" lon="2.80085">
        <ele>24.965000152588</ele>
        <time>2011-03-16T15:16:30Z</time>
      </trkpt>
      <trkpt lat="50.49616" lon="2.80065">
        <ele>25.611999511719</ele>
        <time>2011-03-16T15:16:35Z</time>
      </trkpt>
      <trkpt lat="50.49627" lon="2.80029">
        <ele>26.167999267578</ele>
        <time>2011-03-16T15:16:43Z</time>
      </trkpt>
      <trkpt lat="50.49641" lon="2.79975">
        <ele>26.52499961853</ele>
        <time>2011-03-16T15:16:53Z</time>
      </trkpt>
      <trkpt lat="50.49645" lon="2.79962">
        <ele>26.829999923706</ele>
        <time>2011-03-16T15:16:55Z</time>
      </trkpt>
      <trkpt lat="50.49665" lon="2.79892">
        <ele>27.395999908447</ele>
        <time>2011-03-16T15:17:04Z</time>
      </trkpt>
      <trkpt lat="50.49687" lon="2.79815">
        <ele>28.371999740601</ele>
        <time>2011-03-16T15:17:13Z</time>
      </trkpt>
      <trkpt lat="50.49707" lon="2.79741">
        <ele>28.073999404907</ele>
        <time>2011-03-16T15:17:21Z</time>
      </trkpt>
      <trkpt lat="50.49726" lon="2.79674">
        <ele>29.368999481201</ele>
        <time>2011-03-16T15:17:27Z</time>
      </trkpt>
      <trkpt lat="50.49748" lon="2.79589">
        <ele>31.374000549316</ele>
        <time>2011-03-16T15:17:34Z</time>
      </trkpt>
      <trkpt lat="50.49762" lon="2.79539">
        <ele>29.195999145508</ele>
        <time>2011-03-16T15:17:39Z</time>
      </trkpt>
      <trkpt lat="50.4977" lon="2.7951">
        <ele>27.962999343872</ele>
        <time>2011-03-16T15:17:43Z</time>
      </trkpt>
      <trkpt lat="50.49765" lon="2.79493">
        <ele>27.166000366211</ele>
        <time>2011-03-16T15:17:47Z</time>
      </trkpt>
      <trkpt lat="50.49746" lon="2.79477">
        <ele>26.709999084473</ele>
        <time>2011-03-16T15:17:55Z</time>
      </trkpt>
      <trkpt lat="50.49728" lon="2.79462">
        <ele>27.129999160767</ele>
        <time>2011-03-16T15:18:02Z</time>
      </trkpt>
      <trkpt lat="50.49711" lon="2.79444">
        <ele>27.240999221802</ele>
        <time>2011-03-16T15:18:08Z</time>
      </trkpt>
      <trkpt lat="50.49701" lon="2.79435">
        <ele>27.229000091553</ele>
        <time>2011-03-16T15:18:12Z</time>
      </trkpt>
      <trkpt lat="50.49699" lon="2.79432">
        <ele>27.545000076294</ele>
        <time>2011-03-16T15:18:16Z</time>
      </trkpt>
      <trkpt lat="50.49705" lon="2.79412">
        <ele>28.684000015259</ele>
        <time>2011-03-16T15:19:15Z</time>
      </trkpt>
      <trkpt lat="50.49723" lon="2.79364">
        <ele>29.268999099731</ele>
        <time>2011-03-16T15:19:22Z</time>
      </trkpt>
      <trkpt lat="50.49744" lon="2.79306">
        <ele>29.22200012207</ele>
        <time>2011-03-16T15:19:29Z</time>
      </trkpt>
      <trkpt lat="50.49765" lon="2.79244">
        <ele>29.090999603271</ele>
        <time>2011-03-16T15:19:35Z</time>
      </trkpt>
      <trkpt lat="50.49792" lon="2.79168">
        <ele>29.42799949646</ele>
        <time>2011-03-16T15:19:41Z</time>
      </trkpt>
      <trkpt lat="50.49832" lon="2.79055">
        <ele>28.795999526977</ele>
        <time>2011-03-16T15:19:49Z</time>
      </trkpt>
      <trkpt lat="50.49855" lon="2.78989">
        <ele>28.253000259399</ele>
        <time>2011-03-16T15:19:54Z</time>
      </trkpt>
      <trkpt lat="50.49879" lon="2.78923">
        <ele>26.232999801636</ele>
        <time>2011-03-16T15:20:00Z</time>
      </trkpt>
      <trkpt lat="50.49891" lon="2.7889">
        <ele>23.183000564575</ele>
        <time>2011-03-16T15:20:04Z</time>
      </trkpt>
      <trkpt lat="50.49898" lon="2.78882">
        <ele>23.024000167847</ele>
        <time>2011-03-16T15:20:08Z</time>
      </trkpt>
      <trkpt lat="50.49897" lon="2.78881">
        <ele>22.680999755859</ele>
        <time>2011-03-16T15:20:09Z</time>
      </trkpt>
      <trkpt lat="50.49909" lon="2.78877">
        <ele>23.166000366211</ele>
        <time>2011-03-16T15:20:16Z</time>
      </trkpt>
      <trkpt lat="50.49936" lon="2.78861">
        <ele>24.391000747681</ele>
        <time>2011-03-16T15:20:23Z</time>
      </trkpt>
      <trkpt lat="50.49969" lon="2.78837">
        <ele>23.996999740601</ele>
        <time>2011-03-16T15:20:31Z</time>
      </trkpt>
      <trkpt lat="50.49977" lon="2.7883">
        <ele>23.143999099731</ele>
        <time>2011-03-16T15:20:36Z</time>
      </trkpt>
      <trkpt lat="50.49979" lon="2.78829">
        <ele>22.103000640869</ele>
        <time>2011-03-16T15:20:39Z</time>
      </trkpt>
      <trkpt lat="50.4997" lon="2.78821">
        <ele>21.549999237061</ele>
        <time>2011-03-16T15:22:04Z</time>
      </trkpt>
      <trkpt lat="50.49965" lon="2.78817">
        <ele>21.607999801636</ele>
        <time>2011-03-16T15:22:06Z</time>
      </trkpt>
      <trkpt lat="50.49945" lon="2.78789">
        <ele>21.655000686646</ele>
        <time>2011-03-16T15:22:15Z</time>
      </trkpt>
      <trkpt lat="50.49926" lon="2.78763">
        <ele>21.569999694824</ele>
        <time>2011-03-16T15:22:21Z</time>
      </trkpt>
      <trkpt lat="50.49896" lon="2.78722">
        <ele>21.528999328613</ele>
        <time>2011-03-16T15:22:29Z</time>
      </trkpt>
      <trkpt lat="50.49862" lon="2.78675">
        <ele>21.190999984741</ele>
        <time>2011-03-16T15:22:37Z</time>
      </trkpt>
      <trkpt lat="50.49834" lon="2.78635">
        <ele>21.191999435425</ele>
        <time>2011-03-16T15:22:43Z</time>
      </trkpt>
      <trkpt lat="50.49794" lon="2.78577">
        <ele>21.377000808716</ele>
        <time>2011-03-16T15:22:51Z</time>
      </trkpt>
      <trkpt lat="50.49741" lon="2.78498">
        <ele>21.520000457764</ele>
        <time>2011-03-16T15:23:01Z</time>
      </trkpt>
      <trkpt lat="50.49697" lon="2.78432">
        <ele>21.992000579834</ele>
        <time>2011-03-16T15:23:09Z</time>
      </trkpt>
      <trkpt lat="50.49659" lon="2.78387">
        <ele>21.867000579834</ele>
        <time>2011-03-16T15:23:15Z</time>
      </trkpt>
      <trkpt lat="50.49653" lon="2.78363">
        <ele>21.851999282837</ele>
        <time>2011-03-16T15:23:18Z</time>
      </trkpt>
      <trkpt lat="50.49656" lon="2.78356">
        <ele>22.113000869751</ele>
        <time>2011-03-16T15:23:19Z</time>
      </trkpt>
      <trkpt lat="50.49681" lon="2.7831">
        <ele>22.684999465942</ele>
        <time>2011-03-16T15:23:27Z</time>
      </trkpt>
      <trkpt lat="50.49705" lon="2.78265">
        <ele>22.82200050354</ele>
        <time>2011-03-16T15:23:35Z</time>
      </trkpt>
      <trkpt lat="50.49729" lon="2.78221">
        <ele>23.461000442505</ele>
        <time>2011-03-16T15:23:43Z</time>
      </trkpt>
      <trkpt lat="50.49741" lon="2.782">
        <ele>24.361000061035</ele>
        <time>2011-03-16T15:23:47Z</time>
      </trkpt>
      <trkpt lat="50.49767" lon="2.78185">
        <ele>25.009000778198</ele>
        <time>2011-03-16T15:23:53Z</time>
      </trkpt>
      <trkpt lat="50.4982" lon="2.78169">
        <ele>26.270999908447</ele>
        <time>2011-03-16T15:24:05Z</time>
      </trkpt>
      <trkpt lat="50.49857" lon="2.78164">
        <ele>26.854000091553</ele>
        <time>2011-03-16T15:24:13Z</time>
      </trkpt>
      <trkpt lat="50.49876" lon="2.78166">
        <ele>26.392999649048</ele>
        <time>2011-03-16T15:24:17Z</time>
      </trkpt>
      <trkpt lat="50.49908" lon="2.78166">
        <ele>26.023000717163</ele>
        <time>2011-03-16T15:24:24Z</time>
      </trkpt>
      <trkpt lat="50.49917" lon="2.78166">
        <ele>26.437000274658</ele>
        <time>2011-03-16T15:24:26Z</time>
      </trkpt>
      <trkpt lat="50.4995" lon="2.78167">
        <ele>26.034999847412</ele>
        <time>2011-03-16T15:24:33Z</time>
      </trkpt>
      <trkpt lat="50.49972" lon="2.78165">
        <ele>25.795000076294</ele>
        <time>2011-03-16T15:24:39Z</time>
      </trkpt>
      <trkpt lat="50.49995" lon="2.78159">
        <ele>25.731000900269</ele>
        <time>2011-03-16T15:24:46Z</time>
      </trkpt>
      <trkpt lat="50.50008" lon="2.78134">
        <ele>26.069999694824</ele>
        <time>2011-03-16T15:24:52Z</time>
      </trkpt>
      <trkpt lat="50.5003" lon="2.78092">
        <ele>25.398000717163</ele>
        <time>2011-03-16T15:25:00Z</time>
      </trkpt>
      <trkpt lat="50.50055" lon="2.78044">
        <ele>25.462999343872</ele>
        <time>2011-03-16T15:25:08Z</time>
      </trkpt>
      <trkpt lat="50.50073" lon="2.78006">
        <ele>25.312000274658</ele>
        <time>2011-03-16T15:25:15Z</time>
      </trkpt>
      <trkpt lat="50.5009" lon="2.7797">
        <ele>23.874000549316</ele>
        <time>2011-03-16T15:25:22Z</time>
      </trkpt>
      <trkpt lat="50.50101" lon="2.77949">
        <ele>24.163999557495</ele>
        <time>2011-03-16T15:25:28Z</time>
      </trkpt>
      <trkpt lat="50.50109" lon="2.77938">
        <ele>23.930000305176</ele>
        <time>2011-03-16T15:25:34Z</time>
      </trkpt>
      <trkpt lat="50.5011" lon="2.77938">
        <ele>23.825000762939</ele>
        <time>2011-03-16T15:25:37Z</time>
      </trkpt>
      <trkpt lat="50.50119" lon="2.7794">
        <ele>24.150999069214</ele>
        <time>2011-03-16T15:26:18Z</time>
      </trkpt>
      <trkpt lat="50.50137" lon="2.77954">
        <ele>24.738000869751</ele>
        <time>2011-03-16T15:26:23Z</time>
      </trkpt>
      <trkpt lat="50.50167" lon="2.7798">
        <ele>24.718000411987</ele>
        <time>2011-03-16T15:26:30Z</time>
      </trkpt>
      <trkpt lat="50.50218" lon="2.78023">
        <ele>24.353000640869</ele>
        <time>2011-03-16T15:26:40Z</time>
      </trkpt>
      <trkpt lat="50.50269" lon="2.78067">
        <ele>23.725999832153</ele>
        <time>2011-03-16T15:26:50Z</time>
      </trkpt>
      <trkpt lat="50.50327" lon="2.78117">
        <ele>22.937999725342</ele>
        <time>2011-03-16T15:27:01Z</time>
      </trkpt>
      <trkpt lat="50.50385" lon="2.78164">
        <ele>22.559000015259</ele>
        <time>2011-03-16T15:27:12Z</time>
      </trkpt>
      <trkpt lat="50.5039" lon="2.78167">
        <ele>22.54700088501</ele>
        <time>2011-03-16T15:27:13Z</time>
      </trkpt>
      <trkpt lat="50.50424" lon="2.78174">
        <ele>22.650999069214</ele>
        <time>2011-03-16T15:27:19Z</time>
      </trkpt>
      <trkpt lat="50.50474" lon="2.78176">
        <ele>21.649000167847</ele>
        <time>2011-03-16T15:27:27Z</time>
      </trkpt>
      <trkpt lat="50.50517" lon="2.78178">
        <ele>21.881000518799</ele>
        <time>2011-03-16T15:27:34Z</time>
      </trkpt>
      <trkpt lat="50.50525" lon="2.78192">
        <ele>21.599000930786</ele>
        <time>2011-03-16T15:27:37Z</time>
      </trkpt>
      <trkpt lat="50.50519" lon="2.78205">
        <ele>21.256000518799</ele>
        <time>2011-03-16T15:27:39Z</time>
      </trkpt>
      <trkpt lat="50.50486" lon="2.78274">
        <ele>21.406999588013</ele>
        <time>2011-03-16T15:27:48Z</time>
      </trkpt>
      <trkpt lat="50.5046" lon="2.78331">
        <ele>21.531000137329</ele>
        <time>2011-03-16T15:27:55Z</time>
      </trkpt>
      <trkpt lat="50.50425" lon="2.7841">
        <ele>21.674999237061</ele>
        <time>2011-03-16T15:28:05Z</time>
      </trkpt>
      <trkpt lat="50.50393" lon="2.7848">
        <ele>21.566999435425</ele>
        <time>2011-03-16T15:28:14Z</time>
      </trkpt>
      <trkpt lat="50.50389" lon="2.78507">
        <ele>21.625999450684</ele>
        <time>2011-03-16T15:28:17Z</time>
      </trkpt>
      <trkpt lat="50.50397" lon="2.78519">
        <ele>21.851999282837</ele>
        <time>2011-03-16T15:28:19Z</time>
      </trkpt>
      <trkpt lat="50.5041" lon="2.78534">
        <ele>21.663999557495</ele>
        <time>2011-03-16T15:28:23Z</time>
      </trkpt>
      <trkpt lat="50.50412" lon="2.78537">
        <ele>21.618000030518</ele>
        <time>2011-03-16T15:28:25Z</time>
      </trkpt>
      <trkpt lat="50.50409" lon="2.78551">
        <ele>21.607000350952</ele>
        <time>2011-03-16T15:28:29Z</time>
      </trkpt>
      <trkpt lat="50.50399" lon="2.78574">
        <ele>21.760000228882</ele>
        <time>2011-03-16T15:28:33Z</time>
      </trkpt>
      <trkpt lat="50.50391" lon="2.78612">
        <ele>22.232999801636</ele>
        <time>2011-03-16T15:28:39Z</time>
      </trkpt>
      <trkpt lat="50.5039" lon="2.78617">
        <ele>21.900999069214</ele>
        <time>2011-03-16T15:28:43Z</time>
      </trkpt>
      <trkpt lat="50.5039" lon="2.78621">
        <ele>21.606000900269</ele>
        <time>2011-03-16T15:28:49Z</time>
      </trkpt>
      <trkpt lat="50.50388" lon="2.78621">
        <ele>21.70299911499</ele>
        <time>2011-03-16T15:29:01Z</time>
      </trkpt>
      <trkpt lat="50.50394" lon="2.78639">
        <ele>22.025999069214</ele>
        <time>2011-03-16T15:29:17Z</time>
      </trkpt>
      <trkpt lat="50.50406" lon="2.78645">
        <ele>22.558000564575</ele>
        <time>2011-03-16T15:29:21Z</time>
      </trkpt>
      <trkpt lat="50.50409" lon="2.78647">
        <ele>22.016000747681</ele>
        <time>2011-03-16T15:29:25Z</time>
      </trkpt>
      <trkpt lat="50.50409" lon="2.78665">
        <ele>21.908000946045</ele>
        <time>2011-03-16T15:29:50Z</time>
      </trkpt>
      <trkpt lat="50.50401" lon="2.78697">
        <ele>22.114000320435</ele>
        <time>2011-03-16T15:29:56Z</time>
      </trkpt>
      <trkpt lat="50.50391" lon="2.78742">
        <ele>21.840000152588</ele>
        <time>2011-03-16T15:30:02Z</time>
      </trkpt>
      <trkpt lat="50.50375" lon="2.78813">
        <ele>20.968000411987</ele>
        <time>2011-03-16T15:30:11Z</time>
      </trkpt>
      <trkpt lat="50.50363" lon="2.78865">
        <ele>21.066999435425</ele>
        <time>2011-03-16T15:30:17Z</time>
      </trkpt>
      <trkpt lat="50.50359" lon="2.78882">
        <ele>21.268999099731</ele>
        <time>2011-03-16T15:30:19Z</time>
      </trkpt>
      <trkpt lat="50.50357" lon="2.78919">
        <ele>22.065000534058</ele>
        <time>2011-03-16T15:30:23Z</time>
      </trkpt>
      <trkpt lat="50.5036" lon="2.78946">
        <ele>20.72200012207</ele>
        <time>2011-03-16T15:30:26Z</time>
      </trkpt>
      <trkpt lat="50.50373" lon="2.79016">
        <ele>20.45299911499</ele>
        <time>2011-03-16T15:30:34Z</time>
      </trkpt>
      <trkpt lat="50.50393" lon="2.79099">
        <ele>21.42200088501</ele>
        <time>2011-03-16T15:30:44Z</time>
      </trkpt>
      <trkpt lat="50.50411" lon="2.7916">
        <ele>22.253000259399</ele>
        <time>2011-03-16T15:30:52Z</time>
      </trkpt>
      <trkpt lat="50.50436" lon="2.79247">
        <ele>22.708000183106</ele>
        <time>2011-03-16T15:31:03Z</time>
      </trkpt>
      <trkpt lat="50.50455" lon="2.79328">
        <ele>23.474000930786</ele>
        <time>2011-03-16T15:31:13Z</time>
      </trkpt>
      <trkpt lat="50.50468" lon="2.79386">
        <ele>23.697999954224</ele>
        <time>2011-03-16T15:31:20Z</time>
      </trkpt>
      <trkpt lat="50.50482" lon="2.79452">
        <ele>23.92200088501</ele>
        <time>2011-03-16T15:31:28Z</time>
      </trkpt>
      <trkpt lat="50.50492" lon="2.79516">
        <ele>24.489999771118</ele>
        <time>2011-03-16T15:31:36Z</time>
      </trkpt>
      <trkpt lat="50.50494" lon="2.79563">
        <ele>25.457000732422</ele>
        <time>2011-03-16T15:31:42Z</time>
      </trkpt>
      <trkpt lat="50.50496" lon="2.79598">
        <ele>26.086999893189</ele>
        <time>2011-03-16T15:31:48Z</time>
      </trkpt>
      <trkpt lat="50.50497" lon="2.79636">
        <ele>26.315000534058</ele>
        <time>2011-03-16T15:31:55Z</time>
      </trkpt>
      <trkpt lat="50.505" lon="2.79692">
        <ele>26.903999328613</ele>
        <time>2011-03-16T15:32:05Z</time>
      </trkpt>
      <trkpt lat="50.50503" lon="2.79751">
        <ele>26.799999237061</ele>
        <time>2011-03-16T15:32:16Z</time>
      </trkpt>
      <trkpt lat="50.50503" lon="2.79758">
        <ele>26.378999710083</ele>
        <time>2011-03-16T15:32:20Z</time>
      </trkpt>
      <trkpt lat="50.50503" lon="2.79771">
        <ele>25.89999961853</ele>
        <time>2011-03-16T15:32:26Z</time>
      </trkpt>
      <trkpt lat="50.50504" lon="2.79806">
        <ele>26.170000076294</ele>
        <time>2011-03-16T15:32:34Z</time>
      </trkpt>
      <trkpt lat="50.50504" lon="2.79833">
        <ele>26.548999786377</ele>
        <time>2011-03-16T15:32:42Z</time>
      </trkpt>
      <trkpt lat="50.50505" lon="2.79842">
        <ele>26.302000045776</ele>
        <time>2011-03-16T15:32:46Z</time>
      </trkpt>
      <trkpt lat="50.50505" lon="2.79854">
        <ele>26.478000640869</ele>
        <time>2011-03-16T15:32:53Z</time>
      </trkpt>
      <trkpt lat="50.50505" lon="2.79854">
        <ele>26.27499961853</ele>
        <time>2011-03-16T15:32:55Z</time>
      </trkpt>
      <trkpt lat="50.50501" lon="2.79872">
        <ele>26.093999862671</ele>
        <time>2011-03-16T15:33:18Z</time>
      </trkpt>
      <trkpt lat="50.50497" lon="2.79933">
        <ele>26.187000274658</ele>
        <time>2011-03-16T15:33:27Z</time>
      </trkpt>
      <trkpt lat="50.50488" lon="2.79996">
        <ele>24.931999206543</ele>
        <time>2011-03-16T15:33:36Z</time>
      </trkpt>
      <trkpt lat="50.50486" lon="2.80014">
        <ele>24.089000701904</ele>
        <time>2011-03-16T15:33:40Z</time>
      </trkpt>
      <trkpt lat="50.50486" lon="2.80016">
        <ele>23.798999786377</ele>
        <time>2011-03-16T15:33:43Z</time>
      </trkpt>
      <trkpt lat="50.50494" lon="2.8003">
        <ele>24.191999435425</ele>
        <time>2011-03-16T15:33:48Z</time>
      </trkpt>
      <trkpt lat="50.5053" lon="2.8006">
        <ele>23.871000289917</ele>
        <time>2011-03-16T15:33:57Z</time>
      </trkpt>
      <trkpt lat="50.50563" lon="2.80074">
        <ele>23.754999160767</ele>
        <time>2011-03-16T15:34:03Z</time>
      </trkpt>
      <trkpt lat="50.50619" lon="2.80092">
        <ele>23.090000152588</ele>
        <time>2011-03-16T15:34:13Z</time>
      </trkpt>
      <trkpt lat="50.50661" lon="2.80105">
        <ele>23.033000946045</ele>
        <time>2011-03-16T15:34:20Z</time>
      </trkpt>
      <trkpt lat="50.50722" lon="2.80123">
        <ele>22.156999588013</ele>
        <time>2011-03-16T15:34:30Z</time>
      </trkpt>
      <trkpt lat="50.50771" lon="2.80142">
        <ele>22.013999938965</ele>
        <time>2011-03-16T15:34:38Z</time>
      </trkpt>
      <trkpt lat="50.50802" lon="2.80146">
        <ele>21.667999267578</ele>
        <time>2011-03-16T15:34:44Z</time>
      </trkpt>
      <trkpt lat="50.50814" lon="2.80154">
        <ele>20.622999191284</ele>
        <time>2011-03-16T15:34:48Z</time>
      </trkpt>
      <trkpt lat="50.50825" lon="2.80158">
        <ele>20.631999969482</ele>
        <time>2011-03-16T15:34:51Z</time>
      </trkpt>
      <trkpt lat="50.50837" lon="2.80141">
        <ele>21.059000015259</ele>
        <time>2011-03-16T15:34:55Z</time>
      </trkpt>
      <trkpt lat="50.50843" lon="2.80127">
        <ele>20.854999542236</ele>
        <time>2011-03-16T15:34:58Z</time>
      </trkpt>
      <trkpt lat="50.50853" lon="2.80116">
        <ele>20.767999649048</ele>
        <time>2011-03-16T15:35:03Z</time>
      </trkpt>
      <trkpt lat="50.50855" lon="2.80116">
        <ele>20.534999847412</ele>
        <time>2011-03-16T15:35:07Z</time>
      </trkpt>
      <trkpt lat="50.50859" lon="2.80114">
        <ele>20.934000015259</ele>
        <time>2011-03-16T15:36:46Z</time>
      </trkpt>
      <trkpt lat="50.50874" lon="2.80109">
        <ele>21.179000854492</ele>
        <time>2011-03-16T15:36:53Z</time>
      </trkpt>
      <trkpt lat="50.5089" lon="2.80104">
        <ele>21.600999832153</ele>
        <time>2011-03-16T15:36:59Z</time>
      </trkpt>
      <trkpt lat="50.50906" lon="2.80097">
        <ele>21.208000183106</ele>
        <time>2011-03-16T15:37:05Z</time>
      </trkpt>
      <trkpt lat="50.50935" lon="2.80093">
        <ele>21.127000808716</ele>
        <time>2011-03-16T15:37:13Z</time>
      </trkpt>
      <trkpt lat="50.50975" lon="2.80097">
        <ele>21.436000823975</ele>
        <time>2011-03-16T15:37:22Z</time>
      </trkpt>
      <trkpt lat="50.51008" lon="2.8011">
        <ele>21.096000671387</ele>
        <time>2011-03-16T15:37:29Z</time>
      </trkpt>
      <trkpt lat="50.51056" lon="2.80134">
        <ele>20.537000656128</ele>
        <time>2011-03-16T15:37:39Z</time>
      </trkpt>
      <trkpt lat="50.51065" lon="2.80138">
        <ele>20.687999725342</ele>
        <time>2011-03-16T15:37:41Z</time>
      </trkpt>
      <trkpt lat="50.51095" lon="2.80131">
        <ele>21.111999511719</ele>
        <time>2011-03-16T15:37:47Z</time>
      </trkpt>
      <trkpt lat="50.51141" lon="2.80109">
        <ele>20.309999465942</ele>
        <time>2011-03-16T15:37:56Z</time>
      </trkpt>
      <trkpt lat="50.51186" lon="2.80086">
        <ele>20.361000061035</ele>
        <time>2011-03-16T15:38:05Z</time>
      </trkpt>
      <trkpt lat="50.51225" lon="2.80061">
        <ele>20.728000640869</ele>
        <time>2011-03-16T15:38:13Z</time>
      </trkpt>
      <trkpt lat="50.51256" lon="2.80038">
        <ele>20.531999588013</ele>
        <time>2011-03-16T15:38:20Z</time>
      </trkpt>
      <trkpt lat="50.51269" lon="2.80031">
        <ele>20.090000152588</ele>
        <time>2011-03-16T15:38:25Z</time>
      </trkpt>
      <trkpt lat="50.5127" lon="2.80031">
        <ele>20.017000198364</ele>
        <time>2011-03-16T15:38:27Z</time>
      </trkpt>
      <trkpt lat="50.51271" lon="2.80033">
        <ele>19.915000915527</ele>
        <time>2011-03-16T15:38:34Z</time>
      </trkpt>
      <trkpt lat="50.51273" lon="2.80036">
        <ele>20.937999725342</ele>
        <time>2011-03-16T15:38:53Z</time>
      </trkpt>
      <trkpt lat="50.51274" lon="2.80037">
        <ele>20.309000015259</ele>
        <time>2011-03-16T15:38:55Z</time>
      </trkpt>
      <trkpt lat="50.51276" lon="2.80038">
        <ele>20.555000305176</ele>
        <time>2011-03-16T15:39:07Z</time>
      </trkpt>
      <trkpt lat="50.51278" lon="2.80062">
        <ele>21.115999221802</ele>
        <time>2011-03-16T15:39:37Z</time>
      </trkpt>
      <trkpt lat="50.51278" lon="2.80087">
        <ele>21.847999572754</ele>
        <time>2011-03-16T15:39:43Z</time>
      </trkpt>
      <trkpt lat="50.51279" lon="2.80112">
        <ele>21.881999969482</ele>
        <time>2011-03-16T15:39:47Z</time>
      </trkpt>
      <trkpt lat="50.51281" lon="2.80125">
        <ele>22.181999206543</ele>
        <time>2011-03-16T15:39:49Z</time>
      </trkpt>
      <trkpt lat="50.51287" lon="2.80148">
        <ele>22.798999786377</ele>
        <time>2011-03-16T15:39:53Z</time>
      </trkpt>
      <trkpt lat="50.51292" lon="2.80159">
        <ele>22.781000137329</ele>
        <time>2011-03-16T15:39:59Z</time>
      </trkpt>
      <trkpt lat="50.51292" lon="2.80159">
        <ele>22.448999404907</ele>
        <time>2011-03-16T15:40:01Z</time>
      </trkpt>
      <trkpt lat="50.51306" lon="2.80165">
        <ele>23.409000396729</ele>
        <time>2011-03-16T15:40:31Z</time>
      </trkpt>
      <trkpt lat="50.51324" lon="2.80164">
        <ele>26.096000671387</ele>
        <time>2011-03-16T15:40:36Z</time>
      </trkpt>
      <trkpt lat="50.51357" lon="2.80151">
        <ele>28.086000442505</ele>
        <time>2011-03-16T15:40:46Z</time>
      </trkpt>
      <trkpt lat="50.51372" lon="2.80148">
        <ele>27.986999511719</ele>
        <time>2011-03-16T15:40:50Z</time>
      </trkpt>
      <trkpt lat="50.51386" lon="2.80161">
        <ele>26.860000610352</ele>
        <time>2011-03-16T15:40:54Z</time>
      </trkpt>
      <trkpt lat="50.51384" lon="2.80181">
        <ele>25.413000106811</ele>
        <time>2011-03-16T15:40:57Z</time>
      </trkpt>
      <trkpt lat="50.51382" lon="2.80202">
        <ele>25.118000030518</ele>
        <time>2011-03-16T15:41:01Z</time>
      </trkpt>
      <trkpt lat="50.51387" lon="2.80215">
        <ele>24.405000686646</ele>
        <time>2011-03-16T15:41:04Z</time>
      </trkpt>
      <trkpt lat="50.51398" lon="2.80228">
        <ele>23.131999969482</ele>
        <time>2011-03-16T15:41:07Z</time>
      </trkpt>
      <trkpt lat="50.51408" lon="2.80242">
        <ele>21.915000915527</ele>
        <time>2011-03-16T15:41:10Z</time>
      </trkpt>
      <trkpt lat="50.51415" lon="2.80255">
        <ele>20.974000930786</ele>
        <time>2011-03-16T15:41:14Z</time>
      </trkpt>
      <trkpt lat="50.51413" lon="2.80279">
        <ele>21.180999755859</ele>
        <time>2011-03-16T15:41:19Z</time>
      </trkpt>
      <trkpt lat="50.5141" lon="2.80284">
        <ele>21.211000442505</ele>
        <time>2011-03-16T15:41:20Z</time>
      </trkpt>
      <trkpt lat="50.51396" lon="2.80318">
        <ele>21.155000686646</ele>
        <time>2011-03-16T15:41:26Z</time>
      </trkpt>
      <trkpt lat="50.51379" lon="2.80358">
        <ele>21.375999450684</ele>
        <time>2011-03-16T15:41:32Z</time>
      </trkpt>
      <trkpt lat="50.51363" lon="2.8041">
        <ele>21.523000717163</ele>
        <time>2011-03-16T15:41:39Z</time>
      </trkpt>
      <trkpt lat="50.51343" lon="2.80461">
        <ele>21.079999923706</ele>
        <time>2011-03-16T15:41:45Z</time>
      </trkpt>
      <trkpt lat="50.51318" lon="2.80519">
        <ele>21.72500038147</ele>
        <time>2011-03-16T15:41:52Z</time>
      </trkpt>
      <trkpt lat="50.51301" lon="2.80558">
        <ele>22.666999816894</ele>
        <time>2011-03-16T15:41:57Z</time>
      </trkpt>
      <trkpt lat="50.51285" lon="2.80597">
        <ele>23.114000320435</ele>
        <time>2011-03-16T15:42:02Z</time>
      </trkpt>
      <trkpt lat="50.51262" lon="2.80648">
        <ele>23.013000488281</ele>
        <time>2011-03-16T15:42:09Z</time>
      </trkpt>
      <trkpt lat="50.5125" lon="2.80679">
        <ele>22.916000366211</ele>
        <time>2011-03-16T15:42:14Z</time>
      </trkpt>
      <trkpt lat="50.51247" lon="2.80693">
        <ele>22.861999511719</ele>
        <time>2011-03-16T15:42:19Z</time>
      </trkpt>
      <trkpt lat="50.51245" lon="2.80694">
        <ele>22.770000457764</ele>
        <time>2011-03-16T15:42:20Z</time>
      </trkpt>
      <trkpt lat="50.51231" lon="2.80697">
        <ele>22.618999481201</ele>
        <time>2011-03-16T15:42:29Z</time>
      </trkpt>
      <trkpt lat="50.51223" lon="2.807">
        <ele>22.333999633789</ele>
        <time>2011-03-16T15:42:35Z</time>
      </trkpt>
      <trkpt lat="50.51222" lon="2.807">
        <ele>22.488000869751</ele>
        <time>2011-03-16T15:42:37Z</time>
      </trkpt>
      <trkpt lat="50.51223" lon="2.8073">
        <ele>22.80299949646</ele>
        <time>2011-03-16T15:42:50Z</time>
      </trkpt>
      <trkpt lat="50.51216" lon="2.80759">
        <ele>22.857000350952</ele>
        <time>2011-03-16T15:42:54Z</time>
      </trkpt>
      <trkpt lat="50.51195" lon="2.80814">
        <ele>22.743999481201</ele>
        <time>2011-03-16T15:43:01Z</time>
      </trkpt>
      <trkpt lat="50.51179" lon="2.80854">
        <ele>22.82799911499</ele>
        <time>2011-03-16T15:43:06Z</time>
      </trkpt>
      <trkpt lat="50.51163" lon="2.80893">
        <ele>22.638999938965</ele>
        <time>2011-03-16T15:43:11Z</time>
      </trkpt>
      <trkpt lat="50.51134" lon="2.80961">
        <ele>22.795000076294</ele>
        <time>2011-03-16T15:43:19Z</time>
      </trkpt>
      <trkpt lat="50.5111" lon="2.81019">
        <ele>22.809999465942</ele>
        <time>2011-03-16T15:43:26Z</time>
      </trkpt>
      <trkpt lat="50.5108" lon="2.81098">
        <ele>22.903999328613</ele>
        <time>2011-03-16T15:43:35Z</time>
      </trkpt>
      <trkpt lat="50.51048" lon="2.81176">
        <ele>23.121000289917</ele>
        <time>2011-03-16T15:43:44Z</time>
      </trkpt>
      <trkpt lat="50.51009" lon="2.81274">
        <ele>23.292999267578</ele>
        <time>2011-03-16T15:43:55Z</time>
      </trkpt>
      <trkpt lat="50.50988" lon="2.81323">
        <ele>23.301000595093</ele>
        <time>2011-03-16T15:44:01Z</time>
      </trkpt>
      <trkpt lat="50.50968" lon="2.81372">
        <ele>23.440000534058</ele>
        <time>2011-03-16T15:44:08Z</time>
      </trkpt>
      <trkpt lat="50.50962" lon="2.81384">
        <ele>23.361000061035</ele>
        <time>2011-03-16T15:44:11Z</time>
      </trkpt>
      <trkpt lat="50.50962" lon="2.81386">
        <ele>23.332000732422</ele>
        <time>2011-03-16T15:44:12Z</time>
      </trkpt>
      <trkpt lat="50.50962" lon="2.81387">
        <ele>23.232000350952</ele>
        <time>2011-03-16T15:44:14Z</time>
      </trkpt>
    </trkseg>
  </trk>
</gpx>